createdAt,value
2022-10-06T00:00:57.116Z,7.40
2022-10-06T00:01:58.230Z,6.00
2022-10-06T00:02:57.356Z,5.80
2022-10-06T00:03:57.570Z,6.20
2022-10-06T00:04:56.779Z,5.50
2022-10-06T00:05:57.509Z,7.00
2022-10-06T00:06:56.851Z,7.00
2022-10-06T00:07:57.339Z,7.60
2022-10-06T00:08:56.760Z,7.10
2022-10-06T00:09:56.799Z,7.20
2022-10-06T00:10:56.830Z,7.40
2022-10-06T00:11:56.738Z,7.70
2022-10-06T00:12:56.869Z,9.60
2022-10-06T00:13:56.830Z,7.30
2022-10-06T00:14:56.728Z,9.60
2022-10-06T00:15:56.748Z,12.10
2022-10-06T00:16:56.700Z,8.20
2022-10-06T00:17:56.717Z,9.00
2022-10-06T00:18:56.720Z,8.80
2022-10-06T00:19:56.688Z,11.30
2022-10-06T00:20:56.798Z,11.00
2022-10-06T00:21:56.822Z,9.90
2022-10-06T00:22:56.819Z,6.80
2022-10-06T00:23:58.101Z,8.00
2022-10-06T00:24:56.648Z,8.50
2022-10-06T00:25:56.617Z,9.10
2022-10-06T00:26:56.617Z,6.10
2022-10-06T00:27:56.730Z,7.00
2022-10-06T00:28:56.617Z,5.20
2022-10-06T00:29:56.610Z,7.40
2022-10-06T00:30:56.742Z,6.30
2022-10-06T00:31:56.586Z,7.70
2022-10-06T00:32:56.621Z,6.80
2022-10-06T00:33:56.654Z,8.80
2022-10-06T00:34:56.696Z,7.40
2022-10-06T00:35:56.585Z,9.20
2022-10-06T00:36:56.706Z,9.00
2022-10-06T00:37:56.696Z,9.30
2022-10-06T00:38:56.530Z,8.20
2022-10-06T00:39:56.726Z,7.90
2022-10-06T00:40:56.504Z,9.50
2022-10-06T00:41:56.744Z,6.90
2022-10-06T00:42:56.817Z,9.00
2022-10-06T00:43:56.830Z,9.20
2022-10-06T00:44:57.933Z,6.80
2022-10-06T00:45:56.873Z,6.60
2022-10-06T00:46:56.491Z,8.20
2022-10-06T00:47:56.860Z,7.00
2022-10-06T00:48:56.467Z,8.20
2022-10-06T00:49:56.864Z,7.40
2022-10-06T00:50:56.503Z,6.00
2022-10-06T00:51:57.056Z,7.10
2022-10-06T00:52:56.425Z,6.20
2022-10-06T00:53:56.412Z,6.40
2022-10-06T00:54:56.414Z,5.60
2022-10-06T00:55:56.412Z,4.00
2022-10-06T00:56:56.487Z,3.80
2022-10-06T00:57:56.710Z,5.80
2022-10-06T00:58:56.412Z,6.10
2022-10-06T00:59:56.872Z,5.20
2022-10-06T01:00:56.532Z,3.60
2022-10-06T01:01:56.784Z,5.00
2022-10-06T01:02:56.435Z,4.70
2022-10-06T01:03:56.393Z,4.40
2022-10-06T01:04:56.380Z,2.70
2022-10-06T01:05:56.400Z,4.50
2022-10-06T01:06:56.363Z,3.60
2022-10-06T01:07:56.581Z,3.80
2022-10-06T01:08:57.832Z,4.80
2022-10-06T01:09:56.344Z,2.90
2022-10-06T01:10:57.761Z,4.00
2022-10-06T01:11:56.321Z,3.10
2022-10-06T01:12:57.751Z,3.80
2022-10-06T01:13:56.973Z,4.60
2022-10-06T01:14:57.730Z,4.20
2022-10-06T01:15:56.349Z,2.50
2022-10-06T01:16:56.286Z,4.10
2022-10-06T01:17:56.260Z,5.20
2022-10-06T01:18:56.267Z,4.70
2022-10-06T01:19:57.069Z,4.70
2022-10-06T01:20:57.880Z,4.00
2022-10-06T01:21:57.701Z,4.30
2022-10-06T01:22:57.679Z,5.10
2022-10-06T01:23:56.327Z,4.30
2022-10-06T01:24:56.240Z,2.30
2022-10-06T01:25:56.218Z,2.40
2022-10-06T01:26:56.268Z,4.50
2022-10-06T01:27:57.715Z,5.60
2022-10-06T01:28:56.257Z,3.20
2022-10-06T01:29:56.479Z,5.30
2022-10-06T01:30:56.301Z,3.50
2022-10-06T01:31:56.157Z,4.20
2022-10-06T01:32:56.699Z,5.00
2022-10-06T01:33:56.147Z,7.90
2022-10-06T01:34:56.147Z,4.50
2022-10-06T01:35:56.316Z,4.80
2022-10-06T01:36:57.587Z,4.00
2022-10-06T01:37:56.116Z,4.90
2022-10-06T01:38:56.125Z,7.00
2022-10-06T01:39:56.126Z,5.00
2022-10-06T01:40:56.378Z,5.20
2022-10-06T01:41:56.097Z,4.30
2022-10-06T01:42:57.565Z,4.80
2022-10-06T01:43:57.535Z,4.80
2022-10-06T01:44:56.376Z,5.50
2022-10-06T01:45:57.679Z,4.30
2022-10-06T01:46:56.065Z,5.30
2022-10-06T01:47:56.063Z,4.40
2022-10-06T01:48:56.064Z,5.30
2022-10-06T01:49:57.006Z,5.60
2022-10-06T01:50:56.203Z,6.20
2022-10-06T01:51:57.484Z,5.30
2022-10-06T01:52:56.025Z,8.00
2022-10-06T01:53:56.024Z,7.50
2022-10-06T01:54:56.243Z,7.40
2022-10-06T01:55:56.214Z,6.90
2022-10-06T01:56:57.464Z,6.30
2022-10-06T01:57:56.781Z,5.30
2022-10-06T01:58:55.987Z,4.30
2022-10-06T01:59:55.976Z,6.40
2022-10-06T02:00:55.993Z,5.70
2022-10-06T02:01:57.420Z,7.30
2022-10-06T02:02:55.960Z,6.90
2022-10-06T02:03:55.953Z,5.80
2022-10-06T02:04:55.952Z,7.20
2022-10-06T02:05:56.021Z,7.60
2022-10-06T02:06:55.951Z,5.00
2022-10-06T02:07:55.922Z,5.80
2022-10-06T02:08:55.939Z,5.00
2022-10-06T02:09:55.901Z,4.90
2022-10-06T02:10:55.912Z,7.70
2022-10-06T02:11:56.001Z,6.80
2022-10-06T02:12:57.340Z,8.90
2022-10-06T02:13:57.337Z,8.60
2022-10-06T02:14:55.918Z,4.90
2022-10-06T02:15:55.944Z,6.80
2022-10-06T02:16:55.880Z,7.20
2022-10-06T02:17:55.849Z,7.70
2022-10-06T02:18:55.880Z,5.80
2022-10-06T02:19:55.879Z,6.70
2022-10-06T02:20:55.859Z,8.20
2022-10-06T02:21:56.039Z,6.20
2022-10-06T02:22:55.818Z,5.70
2022-10-06T02:23:56.160Z,8.00
2022-10-06T02:24:57.260Z,8.00
2022-10-06T02:25:57.249Z,8.60
2022-10-06T02:26:55.858Z,7.80
2022-10-06T02:27:55.806Z,7.80
2022-10-06T02:28:57.241Z,6.60
2022-10-06T02:29:55.767Z,7.50
2022-10-06T02:30:56.138Z,7.30
2022-10-06T02:31:56.248Z,9.90
2022-10-06T02:32:56.270Z,8.30
2022-10-06T02:33:55.744Z,5.90
2022-10-06T02:34:55.739Z,6.00
2022-10-06T02:35:57.218Z,7.60
2022-10-06T02:36:57.177Z,9.00
2022-10-06T02:37:57.177Z,11.00
2022-10-06T02:38:56.148Z,6.90
2022-10-06T02:39:57.157Z,11.20
2022-10-06T02:40:55.717Z,8.70
2022-10-06T02:41:57.146Z,7.00
2022-10-06T02:42:55.756Z,7.40
2022-10-06T02:43:56.395Z,5.80
2022-10-06T02:44:55.777Z,7.30
2022-10-06T02:45:55.656Z,7.10
2022-10-06T02:46:56.490Z,6.90
2022-10-06T02:47:56.215Z,8.40
2022-10-06T02:48:55.694Z,8.80
2022-10-06T02:49:55.644Z,7.70
2022-10-06T02:50:55.657Z,10.10
2022-10-06T02:51:55.642Z,7.90
2022-10-06T02:52:55.624Z,9.60
2022-10-06T02:53:55.845Z,10.70
2022-10-06T02:54:55.604Z,9.80
2022-10-06T02:55:55.605Z,8.40
2022-10-06T02:56:57.064Z,8.30
2022-10-06T02:57:55.874Z,8.70
2022-10-06T02:58:56.093Z,6.90
2022-10-06T02:59:57.025Z,11.30
2022-10-06T03:00:55.563Z,10.90
2022-10-06T03:01:55.677Z,7.30
2022-10-06T03:02:57.108Z,5.60
2022-10-06T03:03:55.553Z,7.90
2022-10-06T03:04:55.722Z,12.10
2022-10-06T03:05:57.003Z,9.20
2022-10-06T03:06:56.994Z,9.90
2022-10-06T03:07:55.522Z,9.80
2022-10-06T03:08:55.523Z,11.40
2022-10-06T03:09:55.550Z,10.30
2022-10-06T03:10:56.961Z,9.50
2022-10-06T03:11:56.961Z,11.00
2022-10-06T03:12:56.931Z,8.50
2022-10-06T03:13:55.575Z,9.90
2022-10-06T03:14:56.931Z,11.10
2022-10-06T03:15:57.031Z,9.40
2022-10-06T03:16:55.771Z,9.50
2022-10-06T03:17:56.041Z,7.50
2022-10-06T03:18:55.449Z,14.10
2022-10-06T03:19:55.851Z,7.60
2022-10-06T03:20:56.059Z,7.00
2022-10-06T03:21:55.488Z,9.40
2022-10-06T03:22:55.421Z,10.00
2022-10-06T03:23:55.416Z,12.00
2022-10-06T03:24:56.851Z,11.10
2022-10-06T03:25:56.220Z,9.70
2022-10-06T03:26:55.417Z,7.90
2022-10-06T03:27:55.474Z,10.50
2022-10-06T03:28:55.391Z,9.90
2022-10-06T03:29:55.491Z,9.50
2022-10-06T03:30:55.359Z,11.50
2022-10-06T03:31:55.688Z,13.70
2022-10-06T03:32:55.359Z,9.30
2022-10-06T03:33:55.357Z,9.90
2022-10-06T03:34:55.341Z,10.30
2022-10-06T03:35:55.329Z,11.30
2022-10-06T03:36:56.779Z,9.30
2022-10-06T03:37:55.330Z,9.50
2022-10-06T03:38:55.317Z,9.20
2022-10-06T03:39:55.326Z,14.60
2022-10-06T03:40:56.757Z,8.70
2022-10-06T03:41:55.446Z,12.30
2022-10-06T03:42:55.586Z,9.50
2022-10-06T03:43:55.622Z,10.10
2022-10-06T03:44:55.366Z,13.50
2022-10-06T03:45:55.388Z,12.80
2022-10-06T03:46:55.332Z,11.60
2022-10-06T03:47:55.625Z,13.10
2022-10-06T03:48:55.606Z,11.00
2022-10-06T03:49:56.697Z,13.30
2022-10-06T03:50:55.225Z,11.60
2022-10-06T03:51:55.256Z,9.10
2022-10-06T03:52:55.236Z,11.40
2022-10-06T03:53:56.658Z,6.60
2022-10-06T03:54:56.663Z,11.10
2022-10-06T03:55:55.679Z,13.30
2022-10-06T03:56:55.685Z,9.30
2022-10-06T03:57:56.655Z,14.80
2022-10-06T03:58:55.703Z,12.20
2022-10-06T03:59:55.695Z,10.40
2022-10-06T04:00:55.768Z,11.90
2022-10-06T04:01:55.198Z,11.80
2022-10-06T04:02:55.192Z,12.20
2022-10-06T04:03:55.216Z,11.60
2022-10-06T04:04:55.124Z,15.00
2022-10-06T04:05:55.133Z,10.00
2022-10-06T04:06:55.132Z,10.50
2022-10-06T04:07:56.583Z,9.20
2022-10-06T04:08:55.123Z,11.60
2022-10-06T04:09:55.365Z,11.30
2022-10-06T04:10:55.154Z,11.00
2022-10-06T04:11:55.092Z,8.60
2022-10-06T04:12:55.584Z,11.00
2022-10-06T04:13:55.073Z,10.70
2022-10-06T04:14:59.930Z,11.90
2022-10-06T04:15:55.665Z,10.30
2022-10-06T04:16:55.053Z,8.60
2022-10-06T04:17:55.072Z,8.30
2022-10-06T04:18:55.034Z,10.60
2022-10-06T04:19:55.041Z,8.90
2022-10-06T04:20:55.041Z,14.00
2022-10-06T04:21:55.029Z,10.40
2022-10-06T04:22:55.021Z,7.70
2022-10-06T04:23:55.032Z,8.80
2022-10-06T04:24:55.002Z,11.20
2022-10-06T04:25:56.033Z,13.10
2022-10-06T04:26:54.990Z,7.30
2022-10-06T04:27:55.044Z,7.30
2022-10-06T04:28:54.979Z,9.50
2022-10-06T04:29:54.980Z,10.50
2022-10-06T04:30:56.402Z,9.10
2022-10-06T04:31:55.020Z,11.70
2022-10-06T04:32:54.940Z,10.80
2022-10-06T04:33:55.148Z,11.10
2022-10-06T04:34:55.110Z,13.10
2022-10-06T04:35:54.991Z,10.60
2022-10-06T04:36:54.929Z,8.60
2022-10-06T04:37:54.930Z,10.60
2022-10-06T04:38:55.008Z,11.70
2022-10-06T04:39:54.949Z,8.80
2022-10-06T04:40:54.906Z,7.20
2022-10-06T04:41:56.349Z,9.60
2022-10-06T04:42:54.870Z,10.20
2022-10-06T04:43:54.965Z,11.40
2022-10-06T04:44:54.872Z,7.00
2022-10-06T04:45:55.044Z,12.40
2022-10-06T04:46:55.058Z,9.00
2022-10-06T04:47:54.847Z,7.70
2022-10-06T04:48:54.854Z,9.90
2022-10-06T04:49:55.016Z,14.40
2022-10-06T04:50:54.817Z,11.50
2022-10-06T04:51:54.819Z,8.30
2022-10-06T04:52:54.806Z,12.20
2022-10-06T04:53:56.266Z,11.20
2022-10-06T04:54:55.045Z,12.80
2022-10-06T04:55:54.796Z,10.00
2022-10-06T04:56:54.866Z,14.20
2022-10-06T04:57:54.866Z,12.00
2022-10-06T04:58:54.877Z,8.70
2022-10-06T04:59:54.886Z,11.80
2022-10-06T05:00:56.254Z,10.30
2022-10-06T05:01:54.827Z,12.50
2022-10-06T05:02:54.755Z,12.10
2022-10-06T05:03:54.775Z,9.70
2022-10-06T05:04:54.724Z,9.40
2022-10-06T05:05:55.124Z,9.10
2022-10-06T05:06:54.714Z,8.40
2022-10-06T05:07:56.162Z,10.50
2022-10-06T05:08:55.142Z,12.90
2022-10-06T05:09:54.693Z,10.40
2022-10-06T05:10:54.771Z,7.00
2022-10-06T05:11:55.162Z,9.20
2022-10-06T05:12:56.115Z,11.50
2022-10-06T05:13:55.008Z,9.60
2022-10-06T05:14:54.664Z,11.40
2022-10-06T05:15:54.681Z,10.10
2022-10-06T05:16:54.721Z,9.50
2022-10-06T05:17:54.661Z,11.50
2022-10-06T05:18:54.631Z,10.60
2022-10-06T05:19:54.653Z,10.40
2022-10-06T05:20:54.681Z,9.00
2022-10-06T05:21:54.612Z,11.30
2022-10-06T05:22:54.822Z,13.30
2022-10-06T05:23:56.051Z,11.50
2022-10-06T05:24:56.062Z,9.90
2022-10-06T05:25:55.050Z,12.50
2022-10-06T05:26:58.314Z,9.60
2022-10-06T05:27:54.828Z,9.60
2022-10-06T05:28:56.033Z,11.70
2022-10-06T05:29:54.608Z,11.90
2022-10-06T05:30:55.090Z,9.30
2022-10-06T05:31:56.045Z,8.40
2022-10-06T05:32:55.979Z,9.50
2022-10-06T05:33:55.999Z,11.10
2022-10-06T05:34:54.720Z,10.90
2022-10-06T05:35:54.590Z,8.10
2022-10-06T05:36:54.718Z,9.10
2022-10-06T05:37:54.520Z,9.90
2022-10-06T05:38:54.558Z,11.90
2022-10-06T05:39:54.531Z,16.00
2022-10-06T05:40:54.749Z,9.80
2022-10-06T05:41:54.478Z,12.10
2022-10-06T05:42:54.460Z,13.30
2022-10-06T05:43:55.008Z,9.50
2022-10-06T05:44:54.468Z,11.00
2022-10-06T05:45:55.946Z,13.60
2022-10-06T05:46:54.447Z,8.90
2022-10-06T05:47:55.897Z,11.20
2022-10-06T05:48:55.913Z,8.60
2022-10-06T05:49:55.878Z,12.40
2022-10-06T05:50:55.877Z,10.40
2022-10-06T05:51:54.476Z,10.90
2022-10-06T05:52:54.645Z,11.10
2022-10-06T05:53:54.427Z,10.50
2022-10-06T05:54:55.856Z,13.10
2022-10-06T05:55:54.465Z,13.40
2022-10-06T05:56:54.395Z,14.10
2022-10-06T05:57:54.386Z,11.10
2022-10-06T05:58:55.815Z,12.50
2022-10-06T05:59:54.394Z,9.20
2022-10-06T06:00:54.478Z,13.20
2022-10-06T06:01:54.766Z,12.90
2022-10-06T06:02:55.833Z,11.30
2022-10-06T06:03:54.325Z,11.60
2022-10-06T06:04:54.701Z,10.80
2022-10-06T06:05:54.315Z,12.20
2022-10-06T06:06:55.756Z,12.20
2022-10-06T06:07:54.924Z,14.10
2022-10-06T06:08:55.240Z,10.30
2022-10-06T06:09:55.775Z,13.70
2022-10-06T06:10:54.303Z,13.20
2022-10-06T06:11:54.274Z,14.80
2022-10-06T06:12:54.544Z,13.60
2022-10-06T06:13:54.553Z,12.60
2022-10-06T06:14:54.282Z,10.40
2022-10-06T06:15:55.705Z,8.80
2022-10-06T06:16:54.325Z,12.10
2022-10-06T06:17:54.232Z,16.30
2022-10-06T06:18:54.223Z,21.50
2022-10-06T06:19:54.251Z,13.70
2022-10-06T06:20:54.329Z,14.40
2022-10-06T06:21:54.211Z,12.70
2022-10-06T06:22:55.653Z,11.30
2022-10-06T06:23:54.232Z,9.90
2022-10-06T06:24:54.223Z,13.00
2022-10-06T06:25:56.740Z,12.10
2022-10-06T06:26:54.169Z,12.30
2022-10-06T06:27:54.172Z,10.30
2022-10-06T06:28:55.626Z,12.10
2022-10-06T06:29:54.171Z,11.10
2022-10-06T06:30:54.432Z,12.40
2022-10-06T06:31:54.159Z,12.30
2022-10-06T06:32:54.149Z,10.50
2022-10-06T06:33:54.120Z,12.20
2022-10-06T06:34:54.171Z,11.20
2022-10-06T06:35:54.112Z,11.80
2022-10-06T06:36:54.098Z,13.30
2022-10-06T06:37:55.548Z,10.00
2022-10-06T06:38:54.217Z,14.10
2022-10-06T06:39:54.132Z,12.60
2022-10-06T06:40:55.521Z,10.50
2022-10-06T06:41:54.397Z,9.70
2022-10-06T06:42:54.109Z,11.80
2022-10-06T06:43:54.078Z,13.30
2022-10-06T06:44:54.086Z,15.30
2022-10-06T06:45:54.099Z,16.10
2022-10-06T06:46:54.177Z,13.80
2022-10-06T06:47:54.037Z,13.60
2022-10-06T06:48:55.532Z,11.40
2022-10-06T06:49:54.096Z,13.30
2022-10-06T06:50:54.006Z,10.90
2022-10-06T06:51:54.017Z,11.90
2022-10-06T06:52:55.456Z,9.90
2022-10-06T06:53:54.023Z,9.90
2022-10-06T06:54:54.005Z,13.80
2022-10-06T06:55:54.496Z,13.10
2022-10-06T06:56:55.465Z,12.60
2022-10-06T06:57:53.975Z,13.60
2022-10-06T06:58:54.666Z,11.30
2022-10-06T06:59:53.965Z,10.80
2022-10-06T07:00:53.988Z,12.90
2022-10-06T07:01:54.331Z,11.10
2022-10-06T07:02:55.426Z,13.40
2022-10-06T07:03:57.971Z,12.10
2022-10-06T07:04:53.925Z,14.10
2022-10-06T07:05:53.923Z,10.40
2022-10-06T07:06:54.103Z,17.30
2022-10-06T07:07:53.904Z,14.70
2022-10-06T07:08:53.974Z,13.00
2022-10-06T07:09:53.893Z,9.90
2022-10-06T07:10:55.323Z,15.10
2022-10-06T07:11:53.870Z,13.90
2022-10-06T07:12:53.875Z,11.90
2022-10-06T07:13:53.960Z,12.10
2022-10-06T07:14:53.953Z,16.00
2022-10-06T07:15:54.004Z,10.30
2022-10-06T07:16:53.984Z,16.10
2022-10-06T07:17:53.842Z,14.60
2022-10-06T07:18:53.842Z,12.70
2022-10-06T07:19:53.911Z,14.90
2022-10-06T07:20:53.802Z,13.30
2022-10-06T07:21:53.801Z,11.30
2022-10-06T07:22:54.281Z,16.60
2022-10-06T07:23:55.243Z,12.00
2022-10-06T07:24:54.091Z,12.10
2022-10-06T07:25:54.441Z,10.70
2022-10-06T07:26:54.512Z,11.00
2022-10-06T07:27:53.770Z,12.90
2022-10-06T07:28:53.750Z,14.00
2022-10-06T07:29:54.044Z,12.80
2022-10-06T07:30:54.206Z,13.20
2022-10-06T07:31:53.750Z,13.30
2022-10-06T07:32:54.543Z,13.90
2022-10-06T07:33:55.192Z,12.80
2022-10-06T07:34:54.044Z,12.70
2022-10-06T07:35:53.710Z,15.10
2022-10-06T07:36:53.707Z,11.20
2022-10-06T07:37:55.160Z,11.90
2022-10-06T07:38:55.149Z,8.70
2022-10-06T07:39:53.749Z,10.10
2022-10-06T07:41:17.875Z,12.00
2022-10-06T07:41:53.747Z,14.00
2022-10-06T07:42:53.748Z,15.00
2022-10-06T07:43:53.665Z,11.90
2022-10-06T07:44:54.108Z,14.80
2022-10-06T07:45:55.133Z,12.40
2022-10-06T07:46:54.055Z,13.40
2022-10-06T07:47:55.087Z,12.00
2022-10-06T07:48:55.077Z,9.80
2022-10-06T07:49:53.627Z,14.10
2022-10-06T07:50:53.609Z,10.40
2022-10-06T07:51:53.598Z,12.00
2022-10-06T07:52:55.047Z,11.40
2022-10-06T07:53:55.047Z,11.80
2022-10-06T07:54:53.810Z,12.90
2022-10-06T07:55:53.586Z,12.30
2022-10-06T07:56:53.567Z,14.50
2022-10-06T07:57:53.586Z,14.20
2022-10-06T07:58:53.556Z,12.10
2022-10-06T07:59:53.586Z,12.90
2022-10-06T08:00:55.011Z,12.60
2022-10-06T08:01:53.562Z,14.40
2022-10-06T08:02:55.025Z,13.00
2022-10-06T08:03:53.512Z,14.80
2022-10-06T08:04:53.704Z,13.30
2022-10-06T08:05:55.019Z,11.30
2022-10-06T08:06:53.520Z,14.00
2022-10-06T08:07:53.696Z,14.40
2022-10-06T08:08:53.624Z,16.80
2022-10-06T08:09:53.503Z,14.80
2022-10-06T08:10:53.536Z,12.80
2022-10-06T08:11:53.668Z,14.70
2022-10-06T08:12:53.467Z,13.50
2022-10-06T08:13:53.735Z,14.00
2022-10-06T08:14:53.660Z,12.70
2022-10-06T08:15:53.496Z,15.90
2022-10-06T08:16:53.482Z,14.50
2022-10-06T08:17:53.433Z,13.10
2022-10-06T08:18:53.542Z,12.00
2022-10-06T08:19:53.774Z,13.90
2022-10-06T08:20:53.432Z,11.30
2022-10-06T08:21:53.391Z,12.90
2022-10-06T08:22:53.891Z,13.10
2022-10-06T08:23:53.385Z,14.10
2022-10-06T08:25:05.395Z,11.80
2022-10-06T08:25:54.852Z,12.30
2022-10-06T08:26:53.361Z,15.20
2022-10-06T08:27:53.763Z,12.70
2022-10-06T08:28:53.352Z,11.90
2022-10-06T08:29:53.347Z,12.60
2022-10-06T08:30:53.361Z,11.80
2022-10-06T08:31:53.385Z,13.60
2022-10-06T08:32:53.380Z,13.80
2022-10-06T08:33:53.311Z,10.90
2022-10-06T08:34:53.543Z,15.20
2022-10-06T08:35:53.323Z,14.60
2022-10-06T08:37:15.878Z,11.40
2022-10-06T08:37:53.310Z,12.40
2022-10-06T08:38:53.404Z,10.50
2022-10-06T09:24:51.936Z,12.00
2022-10-06T09:25:51.910Z,10.10
2022-10-06T09:26:52.091Z,7.80
2022-10-06T09:54:46.979Z,5.90
2022-10-06T09:55:46.980Z,6.10
2022-10-06T09:56:46.992Z,6.60
2022-10-06T09:57:47.008Z,5.60
2022-10-06T09:58:46.957Z,6.10
2022-10-06T09:59:46.968Z,7.00
2022-10-06T10:00:47.017Z,6.60
2022-10-06T10:01:46.989Z,5.00
2022-10-06T10:02:47.034Z,6.10
2022-10-06T10:04:08.710Z,6.30
2022-10-06T10:04:51.386Z,5.80
2022-10-06T10:05:47.040Z,5.10
2022-10-06T10:06:47.063Z,9.10
2022-10-06T10:07:47.070Z,5.90
2022-10-06T10:08:46.974Z,8.50
2022-10-06T10:09:47.001Z,7.60
2022-10-06T10:10:47.109Z,6.00
2022-10-06T10:11:47.119Z,5.70
2022-10-06T10:12:46.878Z,4.80
2022-10-06T10:13:47.147Z,6.70
2022-10-06T10:14:47.158Z,4.10
2022-10-06T10:15:47.160Z,7.10
2022-10-06T10:16:50.928Z,6.60
2022-10-06T10:17:46.888Z,8.50
2022-10-06T10:18:47.219Z,6.40
2022-10-06T10:19:47.007Z,6.10
2022-10-06T10:20:46.820Z,8.50
2022-10-06T10:21:46.830Z,8.70
2022-10-06T10:22:46.778Z,4.70
2022-10-06T10:23:46.829Z,5.70
2022-10-06T10:24:46.848Z,5.60
2022-10-06T10:25:46.978Z,7.30
2022-10-06T10:26:46.988Z,4.50
2022-10-06T10:27:46.800Z,4.30
2022-10-06T10:28:46.801Z,4.20
2022-10-06T10:29:47.086Z,5.80
2022-10-06T10:30:46.753Z,4.80
2022-10-06T10:31:46.829Z,3.40
2022-10-06T10:32:46.808Z,6.50
2022-10-06T10:33:59.170Z,4.80
2022-10-06T10:34:46.898Z,5.10
2022-10-06T10:35:46.690Z,3.90
2022-10-06T10:36:47.069Z,4.40
2022-10-06T10:37:46.678Z,3.50
2022-10-06T10:38:46.868Z,6.90
2022-10-06T10:39:47.149Z,4.20
2022-10-06T10:40:47.260Z,3.50
2022-10-06T10:41:47.030Z,5.60
2022-10-06T10:42:46.648Z,6.40
2022-10-06T10:43:46.898Z,5.40
2022-10-06T10:44:47.304Z,4.50
2022-10-06T10:45:47.527Z,5.10
